sensor_id;sensor_type;location;lat;lon;timestamp;P1;durP1;ratioP1;P2;durP2;ratioP2
6955;SDS011;50345;51.136;16.886;2022-08-25T00:01:36;23.27;;;20.90;;
6955;SDS011;50345;51.136;16.886;2022-08-25T00:04:04;23.70;;;21.33;;
6955;SDS011;50345;51.136;16.886;2022-08-25T00:06:30;24.30;;;22.20;;
6955;SDS011;50345;51.136;16.886;2022-08-25T00:08:57;24.57;;;22.07;;
6955;SDS011;50345;51.136;16.886;2022-08-25T00:11:24;29.27;;;23.53;;
6955;SDS011;50345;51.136;16.886;2022-08-25T00:13:58;25.33;;;22.77;;
6955;SDS011;50345;51.136;16.886;2022-08-25T00:16:25;26.20;;;23.70;;
6955;SDS011;50345;51.136;16.886;2022-08-25T00:18:55;23.73;;;21.77;;
6955;SDS011;50345;51.136;16.886;2022-08-25T00:21:22;26.97;;;24.10;;
6955;SDS011;50345;51.136;16.886;2022-08-25T00:23:48;26.50;;;24.00;;
6955;SDS011;50345;51.136;16.886;2022-08-25T00:26:14;26.00;;;23.30;;
6955;SDS011;50345;51.136;16.886;2022-08-25T00:28:41;25.20;;;22.80;;
6955;SDS011;50345;51.136;16.886;2022-08-25T00:31:10;24.40;;;21.90;;
6955;SDS011;50345;51.136;16.886;2022-08-25T00:33:36;24.67;;;22.37;;
6955;SDS011;50345;51.136;16.886;2022-08-25T00:36:02;31.23;;;23.63;;
6955;SDS011;50345;51.136;16.886;2022-08-25T00:38:28;25.77;;;23.37;;
6955;SDS011;50345;51.136;16.886;2022-08-25T00:40:55;25.40;;;22.90;;
6955;SDS011;50345;51.136;16.886;2022-08-25T00:46:06;25.13;;;22.53;;
6955;SDS011;50345;51.136;16.886;2022-08-25T00:48:32;24.53;;;22.00;;
6955;SDS011;50345;51.136;16.886;2022-08-25T00:50:58;28.33;;;25.53;;
6955;SDS011;50345;51.136;16.886;2022-08-25T00:53:25;27.23;;;24.63;;
6955;SDS011;50345;51.136;16.886;2022-08-25T00:55:51;27.17;;;24.73;;
6955;SDS011;50345;51.136;16.886;2022-08-25T00:58:19;33.73;;;24.30;;
6955;SDS011;50345;51.136;16.886;2022-08-25T01:00:49;26.43;;;23.70;;
6955;SDS011;50345;51.136;16.886;2022-08-25T01:03:17;28.63;;;25.87;;
6955;SDS011;50345;51.136;16.886;2022-08-25T01:05:43;29.63;;;26.70;;
6955;SDS011;50345;51.136;16.886;2022-08-25T01:08:09;28.33;;;25.83;;
6955;SDS011;50345;51.136;16.886;2022-08-25T01:10:36;27.40;;;24.43;;
6955;SDS011;50345;51.136;16.886;2022-08-25T01:13:07;28.70;;;25.70;;
6955;SDS011;50345;51.136;16.886;2022-08-25T01:15:34;29.27;;;24.60;;
6955;SDS011;50345;51.136;16.886;2022-08-25T01:18:00;29.17;;;26.07;;
6955;SDS011;50345;51.136;16.886;2022-08-25T01:20:27;28.70;;;25.30;;
6955;SDS011;50345;51.136;16.886;2022-08-25T01:22:53;29.80;;;26.30;;
6955;SDS011;50345;51.136;16.886;2022-08-25T01:27:53;30.03;;;26.90;;
6955;SDS011;50345;51.136;16.886;2022-08-25T01:30:19;29.57;;;26.67;;
6955;SDS011;50345;51.136;16.886;2022-08-25T01:32:46;28.70;;;26.00;;
6955;SDS011;50345;51.136;16.886;2022-08-25T01:35:13;28.30;;;25.57;;
6955;SDS011;50345;51.136;16.886;2022-08-25T01:37:39;31.90;;;28.70;;
6955;SDS011;50345;51.136;16.886;2022-08-25T01:40:05;30.20;;;27.07;;
6955;SDS011;50345;51.136;16.886;2022-08-25T01:42:33;27.17;;;24.63;;
6955;SDS011;50345;51.136;16.886;2022-08-25T01:45:03;28.10;;;25.30;;
6955;SDS011;50345;51.136;16.886;2022-08-25T01:47:30;29.60;;;26.63;;
6955;SDS011;50345;51.136;16.886;2022-08-25T01:49:56;27.90;;;25.20;;
6955;SDS011;50345;51.136;16.886;2022-08-25T01:52:24;26.97;;;24.33;;
6955;SDS011;50345;51.136;16.886;2022-08-25T01:54:50;28.53;;;25.63;;
6955;SDS011;50345;51.136;16.886;2022-08-25T01:57:16;29.67;;;25.30;;
6955;SDS011;50345;51.136;16.886;2022-08-25T01:59:42;30.13;;;26.60;;
6955;SDS011;50345;51.136;16.886;2022-08-25T02:02:09;28.83;;;26.03;;
6955;SDS011;50345;51.136;16.886;2022-08-25T02:04:35;28.47;;;25.80;;
6955;SDS011;50345;51.136;16.886;2022-08-25T02:07:03;27.97;;;25.00;;
6955;SDS011;50345;51.136;16.886;2022-08-25T02:09:29;29.30;;;26.30;;
6955;SDS011;50345;51.136;16.886;2022-08-25T02:11:55;25.53;;;23.23;;
6955;SDS011;50345;51.136;16.886;2022-08-25T02:14:22;27.13;;;24.60;;
6955;SDS011;50345;51.136;16.886;2022-08-25T02:16:49;28.10;;;25.30;;
6955;SDS011;50345;51.136;16.886;2022-08-25T02:19:15;27.13;;;24.70;;
6955;SDS011;50345;51.136;16.886;2022-08-25T02:21:42;27.00;;;24.27;;
6955;SDS011;50345;51.136;16.886;2022-08-25T02:24:09;25.47;;;22.70;;
6955;SDS011;50345;51.136;16.886;2022-08-25T02:26:36;27.43;;;24.30;;
6955;SDS011;50345;51.136;16.886;2022-08-25T02:29:02;26.93;;;24.37;;
6955;SDS011;50345;51.136;16.886;2022-08-25T02:31:29;26.17;;;23.53;;
6955;SDS011;50345;51.136;16.886;2022-08-25T02:33:55;26.60;;;23.87;;
6955;SDS011;50345;51.136;16.886;2022-08-25T02:36:21;28.57;;;24.50;;
6955;SDS011;50345;51.136;16.886;2022-08-25T02:38:48;28.03;;;22.77;;
6955;SDS011;50345;51.136;16.886;2022-08-25T02:41:20;26.03;;;23.57;;
6955;SDS011;50345;51.136;16.886;2022-08-25T02:43:47;25.53;;;22.97;;
6955;SDS011;50345;51.136;16.886;2022-08-25T02:46:14;24.63;;;22.10;;
6955;SDS011;50345;51.136;16.886;2022-08-25T02:48:41;27.17;;;24.50;;
6955;SDS011;50345;51.136;16.886;2022-08-25T02:51:07;25.73;;;23.33;;
6955;SDS011;50345;51.136;16.886;2022-08-25T02:53:34;26.27;;;23.77;;
6955;SDS011;50345;51.136;16.886;2022-08-25T02:56:05;26.00;;;23.57;;
6955;SDS011;50345;51.136;16.886;2022-08-25T02:58:33;25.93;;;23.63;;
6955;SDS011;50345;51.136;16.886;2022-08-25T03:00:59;25.60;;;23.17;;
6955;SDS011;50345;51.136;16.886;2022-08-25T03:03:26;26.20;;;22.27;;
6955;SDS011;50345;51.136;16.886;2022-08-25T03:05:53;23.70;;;21.40;;
6955;SDS011;50345;51.136;16.886;2022-08-25T03:08:20;25.23;;;22.60;;
6955;SDS011;50345;51.136;16.886;2022-08-25T03:10:46;24.13;;;21.83;;
6955;SDS011;50345;51.136;16.886;2022-08-25T03:13:12;21.83;;;19.93;;
6955;SDS011;50345;51.136;16.886;2022-08-25T03:15:38;24.73;;;22.33;;
6955;SDS011;50345;51.136;16.886;2022-08-25T03:18:06;24.40;;;22.20;;
6955;SDS011;50345;51.136;16.886;2022-08-25T03:20:33;24.40;;;21.53;;
6955;SDS011;50345;51.136;16.886;2022-08-25T03:23:00;25.47;;;22.97;;
6955;SDS011;50345;51.136;16.886;2022-08-25T03:25:26;22.10;;;20.20;;
6955;SDS011;50345;51.136;16.886;2022-08-25T03:28:11;23.63;;;21.43;;
6955;SDS011;50345;51.136;16.886;2022-08-25T03:30:37;23.70;;;21.40;;
6955;SDS011;50345;51.136;16.886;2022-08-25T03:33:03;23.23;;;20.93;;
6955;SDS011;50345;51.136;16.886;2022-08-25T03:35:29;23.73;;;21.60;;
6955;SDS011;50345;51.136;16.886;2022-08-25T03:37:55;23.60;;;21.40;;
6955;SDS011;50345;51.136;16.886;2022-08-25T03:40:22;25.50;;;23.00;;
6955;SDS011;50345;51.136;16.886;2022-08-25T03:42:48;23.73;;;21.63;;
6955;SDS011;50345;51.136;16.886;2022-08-25T03:45:15;22.13;;;20.07;;
6955;SDS011;50345;51.136;16.886;2022-08-25T03:47:41;20.80;;;19.07;;
6955;SDS011;50345;51.136;16.886;2022-08-25T03:50:10;20.97;;;19.27;;
6955;SDS011;50345;51.136;16.886;2022-08-25T03:52:36;23.33;;;21.33;;
6955;SDS011;50345;51.136;16.886;2022-08-25T03:55:03;21.57;;;19.67;;
6955;SDS011;50345;51.136;16.886;2022-08-25T03:57:29;22.63;;;20.63;;
6955;SDS011;50345;51.136;16.886;2022-08-25T03:59:55;21.93;;;19.93;;
6955;SDS011;50345;51.136;16.886;2022-08-25T04:02:21;22.53;;;20.03;;
6955;SDS011;50345;51.136;16.886;2022-08-25T04:04:47;24.40;;;22.10;;
6955;SDS011;50345;51.136;16.886;2022-08-25T04:07:14;25.63;;;23.37;;
6955;SDS011;50345;51.136;16.886;2022-08-25T04:09:40;24.37;;;21.77;;
6955;SDS011;50345;51.136;16.886;2022-08-25T04:12:06;24.20;;;21.90;;
6955;SDS011;50345;51.136;16.886;2022-08-25T04:14:32;23.47;;;21.13;;
6955;SDS011;50345;51.136;16.886;2022-08-25T04:16:58;22.50;;;20.30;;
6955;SDS011;50345;51.136;16.886;2022-08-25T04:19:24;24.40;;;21.80;;
6955;SDS011;50345;51.136;16.886;2022-08-25T04:21:51;23.80;;;21.57;;
6955;SDS011;50345;51.136;16.886;2022-08-25T04:24:17;24.70;;;22.60;;
6955;SDS011;50345;51.136;16.886;2022-08-25T04:26:44;22.67;;;20.53;;
6955;SDS011;50345;51.136;16.886;2022-08-25T04:29:11;22.37;;;20.30;;
6955;SDS011;50345;51.136;16.886;2022-08-25T04:31:38;22.00;;;20.00;;
6955;SDS011;50345;51.136;16.886;2022-08-25T04:34:05;22.97;;;20.27;;
6955;SDS011;50345;51.136;16.886;2022-08-25T04:36:31;21.67;;;19.77;;
6955;SDS011;50345;51.136;16.886;2022-08-25T04:38:58;20.70;;;18.90;;
6955;SDS011;50345;51.136;16.886;2022-08-25T04:41:24;20.93;;;19.13;;
6955;SDS011;50345;51.136;16.886;2022-08-25T04:43:51;22.43;;;20.30;;
6955;SDS011;50345;51.136;16.886;2022-08-25T04:46:19;20.63;;;18.80;;
6955;SDS011;50345;51.136;16.886;2022-08-25T04:48:46;19.70;;;18.10;;
6955;SDS011;50345;51.136;16.886;2022-08-25T04:51:14;22.07;;;20.27;;
6955;SDS011;50345;51.136;16.886;2022-08-25T04:53:40;20.53;;;18.73;;
6955;SDS011;50345;51.136;16.886;2022-08-25T04:56:08;21.87;;;19.97;;
6955;SDS011;50345;51.136;16.886;2022-08-25T04:58:35;23.70;;;20.40;;
6955;SDS011;50345;51.136;16.886;2022-08-25T05:01:02;20.40;;;18.67;;
6955;SDS011;50345;51.136;16.886;2022-08-25T05:03:28;23.03;;;20.73;;
6955;SDS011;50345;51.136;16.886;2022-08-25T05:05:55;21.90;;;19.80;;
6955;SDS011;50345;51.136;16.886;2022-08-25T05:08:21;21.23;;;19.23;;
6955;SDS011;50345;51.136;16.886;2022-08-25T05:10:47;23.57;;;21.27;;
6955;SDS011;50345;51.136;16.886;2022-08-25T05:13:13;32.50;;;27.93;;
6955;SDS011;50345;51.136;16.886;2022-08-25T05:15:39;29.00;;;26.27;;
6955;SDS011;50345;51.136;16.886;2022-08-25T05:18:14;26.23;;;23.60;;
6955;SDS011;50345;51.136;16.886;2022-08-25T05:20:40;23.20;;;20.83;;
6955;SDS011;50345;51.136;16.886;2022-08-25T05:23:06;28.87;;;21.03;;
6955;SDS011;50345;51.136;16.886;2022-08-25T05:25:32;23.23;;;20.73;;
6955;SDS011;50345;51.136;16.886;2022-08-25T05:27:58;22.40;;;20.30;;
6955;SDS011;50345;51.136;16.886;2022-08-25T05:30:24;19.53;;;17.73;;
6955;SDS011;50345;51.136;16.886;2022-08-25T05:32:51;21.43;;;19.63;;
6955;SDS011;50345;51.136;16.886;2022-08-25T05:35:17;23.13;;;20.73;;
6955;SDS011;50345;51.136;16.886;2022-08-25T05:37:44;23.70;;;21.60;;
6955;SDS011;50345;51.136;16.886;2022-08-25T05:40:10;21.07;;;18.90;;
6955;SDS011;50345;51.136;16.886;2022-08-25T05:42:36;22.07;;;20.17;;
6955;SDS011;50345;51.136;16.886;2022-08-25T05:45:03;29.00;;;24.17;;
6955;SDS011;50345;51.136;16.886;2022-08-25T05:47:29;23.77;;;21.27;;
6955;SDS011;50345;51.136;16.886;2022-08-25T05:49:55;23.33;;;20.93;;
6955;SDS011;50345;51.136;16.886;2022-08-25T05:52:21;27.10;;;19.93;;
6955;SDS011;50345;51.136;16.886;2022-08-25T05:54:47;23.63;;;20.97;;
6955;SDS011;50345;51.136;16.886;2022-08-25T05:57:13;22.00;;;20.20;;
6955;SDS011;50345;51.136;16.886;2022-08-25T05:59:39;24.97;;;22.37;;
6955;SDS011;50345;51.136;16.886;2022-08-25T06:02:05;23.07;;;20.13;;
6955;SDS011;50345;51.136;16.886;2022-08-25T06:04:50;24.63;;;22.53;;
6955;SDS011;50345;51.136;16.886;2022-08-25T06:07:16;24.67;;;22.23;;
6955;SDS011;50345;51.136;16.886;2022-08-25T06:09:42;24.13;;;21.83;;
6955;SDS011;50345;51.136;16.886;2022-08-25T06:12:10;26.07;;;23.50;;
6955;SDS011;50345;51.136;16.886;2022-08-25T06:14:37;22.40;;;20.20;;
6955;SDS011;50345;51.136;16.886;2022-08-25T06:17:03;24.47;;;22.30;;
6955;SDS011;50345;51.136;16.886;2022-08-25T06:19:29;24.43;;;22.07;;
6955;SDS011;50345;51.136;16.886;2022-08-25T06:21:56;24.70;;;22.20;;
6955;SDS011;50345;51.136;16.886;2022-08-25T06:24:23;25.10;;;22.70;;
6955;SDS011;50345;51.136;16.886;2022-08-25T06:26:49;24.30;;;21.70;;
6955;SDS011;50345;51.136;16.886;2022-08-25T06:29:15;23.30;;;21.10;;
6955;SDS011;50345;51.136;16.886;2022-08-25T06:31:41;21.97;;;20.00;;
6955;SDS011;50345;51.136;16.886;2022-08-25T06:34:08;19.47;;;17.83;;
6955;SDS011;50345;51.136;16.886;2022-08-25T06:36:34;23.60;;;21.30;;
6955;SDS011;50345;51.136;16.886;2022-08-25T06:39:00;25.43;;;22.87;;
6955;SDS011;50345;51.136;16.886;2022-08-25T06:41:26;22.50;;;20.10;;
6955;SDS011;50345;51.136;16.886;2022-08-25T06:43:54;17.90;;;16.20;;
6955;SDS011;50345;51.136;16.886;2022-08-25T06:46:21;16.83;;;15.10;;
6955;SDS011;50345;51.136;16.886;2022-08-25T06:48:47;23.63;;;21.60;;
6955;SDS011;50345;51.136;16.886;2022-08-25T06:51:15;26.33;;;21.73;;
6955;SDS011;50345;51.136;16.886;2022-08-25T06:53:42;23.10;;;20.87;;
6955;SDS011;50345;51.136;16.886;2022-08-25T06:56:08;24.00;;;21.60;;
6955;SDS011;50345;51.136;16.886;2022-08-25T06:58:34;24.73;;;22.10;;
6955;SDS011;50345;51.136;16.886;2022-08-25T07:03:35;17.10;;;15.40;;
6955;SDS011;50345;51.136;16.886;2022-08-25T07:06:02;25.83;;;22.60;;
6955;SDS011;50345;51.136;16.886;2022-08-25T07:08:29;22.17;;;20.00;;
6955;SDS011;50345;51.136;16.886;2022-08-25T07:10:55;26.80;;;24.10;;
6955;SDS011;50345;51.136;16.886;2022-08-25T07:13:21;17.53;;;15.70;;
6955;SDS011;50345;51.136;16.886;2022-08-25T07:15:47;25.60;;;23.00;;
6955;SDS011;50345;51.136;16.886;2022-08-25T07:18:17;19.93;;;15.97;;
6955;SDS011;50345;51.136;16.886;2022-08-25T07:20:44;25.73;;;23.30;;
6955;SDS011;50345;51.136;16.886;2022-08-25T07:23:10;20.40;;;18.43;;
6955;SDS011;50345;51.136;16.886;2022-08-25T07:25:36;22.10;;;17.43;;
6955;SDS011;50345;51.136;16.886;2022-08-25T07:28:03;23.90;;;21.47;;
6955;SDS011;50345;51.136;16.886;2022-08-25T07:30:29;25.33;;;23.13;;
6955;SDS011;50345;51.136;16.886;2022-08-25T07:32:56;22.47;;;20.23;;
6955;SDS011;50345;51.136;16.886;2022-08-25T07:35:22;29.73;;;23.30;;
6955;SDS011;50345;51.136;16.886;2022-08-25T07:37:53;24.77;;;16.37;;
6955;SDS011;50345;51.136;16.886;2022-08-25T07:42:49;20.67;;;18.67;;
6955;SDS011;50345;51.136;16.886;2022-08-25T07:45:16;20.33;;;18.37;;
6955;SDS011;50345;51.136;16.886;2022-08-25T07:47:42;23.03;;;19.87;;
6955;SDS011;50345;51.136;16.886;2022-08-25T07:50:09;18.67;;;16.90;;
6955;SDS011;50345;51.136;16.886;2022-08-25T07:52:36;19.57;;;18.00;;
6955;SDS011;50345;51.136;16.886;2022-08-25T07:55:02;21.80;;;17.30;;
6955;SDS011;50345;51.136;16.886;2022-08-25T07:57:28;18.37;;;16.43;;
6955;SDS011;50345;51.136;16.886;2022-08-25T07:59:55;18.70;;;16.77;;
6955;SDS011;50345;51.136;16.886;2022-08-25T08:02:22;17.60;;;16.13;;
6955;SDS011;50345;51.136;16.886;2022-08-25T08:04:48;20.07;;;17.97;;
6955;SDS011;50345;51.136;16.886;2022-08-25T08:07:22;17.60;;;15.77;;
6955;SDS011;50345;51.136;16.886;2022-08-25T08:09:48;18.87;;;16.63;;
6955;SDS011;50345;51.136;16.886;2022-08-25T08:12:15;19.10;;;16.40;;
6955;SDS011;50345;51.136;16.886;2022-08-25T08:14:41;19.60;;;16.90;;
6955;SDS011;50345;51.136;16.886;2022-08-25T08:17:08;21.33;;;15.47;;
6955;SDS011;50345;51.136;16.886;2022-08-25T08:19:34;19.33;;;15.20;;
6955;SDS011;50345;51.136;16.886;2022-08-25T08:22:01;17.67;;;15.97;;
6955;SDS011;50345;51.136;16.886;2022-08-25T08:24:28;19.53;;;15.97;;
6955;SDS011;50345;51.136;16.886;2022-08-25T08:26:54;33.53;;;17.60;;
6955;SDS011;50345;51.136;16.886;2022-08-25T08:29:20;24.37;;;14.47;;
6955;SDS011;50345;51.136;16.886;2022-08-25T08:31:47;18.03;;;16.20;;
6955;SDS011;50345;51.136;16.886;2022-08-25T08:34:13;16.93;;;14.97;;
6955;SDS011;50345;51.136;16.886;2022-08-25T08:36:39;20.17;;;15.63;;
6955;SDS011;50345;51.136;16.886;2022-08-25T08:39:05;24.50;;;16.90;;
6955;SDS011;50345;51.136;16.886;2022-08-25T08:52:21;26.47;;;16.60;;
6955;SDS011;50345;51.136;16.886;2022-08-25T08:54:51;18.33;;;16.50;;
6955;SDS011;50345;51.136;16.886;2022-08-25T08:57:21;17.23;;;15.03;;
6955;SDS011;50345;51.136;16.886;2022-08-25T08:59:53;16.27;;;14.60;;
6955;SDS011;50345;51.136;16.886;2022-08-25T09:02:22;16.93;;;15.20;;
6955;SDS011;50345;51.136;16.886;2022-08-25T09:04:52;16.37;;;14.80;;
6955;SDS011;50345;51.136;16.886;2022-08-25T09:07:28;22.93;;;16.07;;
6955;SDS011;50345;51.136;16.886;2022-08-25T09:09:56;24.10;;;17.23;;
6955;SDS011;50345;51.136;16.886;2022-08-25T09:18:17;19.70;;;15.73;;
6955;SDS011;50345;51.136;16.886;2022-08-25T09:28:44;23.83;;;15.70;;
6955;SDS011;50345;51.136;16.886;2022-08-25T09:33:49;26.10;;;14.30;;
6955;SDS011;50345;51.136;16.886;2022-08-25T09:36:17;20.53;;;15.17;;
6955;SDS011;50345;51.136;16.886;2022-08-25T09:38:43;19.60;;;13.23;;
6955;SDS011;50345;51.136;16.886;2022-08-25T09:41:10;20.50;;;13.67;;
6955;SDS011;50345;51.136;16.886;2022-08-25T09:43:41;17.67;;;12.53;;
6955;SDS011;50345;51.136;16.886;2022-08-25T09:46:10;16.43;;;13.50;;
6955;SDS011;50345;51.136;16.886;2022-08-25T09:48:44;18.87;;;14.57;;
6955;SDS011;50345;51.136;16.886;2022-08-25T09:53:50;22.37;;;14.50;;
6955;SDS011;50345;51.136;16.886;2022-08-25T09:56:18;15.70;;;13.60;;
6955;SDS011;50345;51.136;16.886;2022-08-25T09:58:44;13.93;;;12.03;;
6955;SDS011;50345;51.136;16.886;2022-08-25T10:01:18;15.20;;;13.00;;
6955;SDS011;50345;51.136;16.886;2022-08-25T10:06:43;19.77;;;13.90;;
6955;SDS011;50345;51.136;16.886;2022-08-25T10:09:10;12.57;;;11.40;;
6955;SDS011;50345;51.136;16.886;2022-08-25T10:11:43;17.30;;;11.73;;
6955;SDS011;50345;51.136;16.886;2022-08-25T10:16:38;15.70;;;12.10;;
6955;SDS011;50345;51.136;16.886;2022-08-25T10:19:12;18.00;;;12.03;;
6955;SDS011;50345;51.136;16.886;2022-08-25T10:21:39;12.90;;;11.67;;
6955;SDS011;50345;51.136;16.886;2022-08-25T10:24:09;22.93;;;12.03;;
6955;SDS011;50345;51.136;16.886;2022-08-25T10:31:45;10.57;;;7.77;;
6955;SDS011;50345;51.136;16.886;2022-08-25T10:37:05;15.00;;;9.17;;
6955;SDS011;50345;51.136;16.886;2022-08-25T10:39:32;16.30;;;7.97;;
6955;SDS011;50345;51.136;16.886;2022-08-25T10:44:45;14.70;;;7.20;;
6955;SDS011;50345;51.136;16.886;2022-08-25T10:50:22;17.40;;;7.20;;
6955;SDS011;50345;51.136;16.886;2022-08-25T10:53:09;27.23;;;8.37;;
6955;SDS011;50345;51.136;16.886;2022-08-25T10:58:27;20.50;;;8.50;;
6955;SDS011;50345;51.136;16.886;2022-08-25T11:01:09;15.20;;;6.30;;
6955;SDS011;50345;51.136;16.886;2022-08-25T11:03:51;13.83;;;6.60;;
6955;SDS011;50345;51.136;16.886;2022-08-25T11:06:25;17.90;;;6.70;;
6955;SDS011;50345;51.136;16.886;2022-08-25T11:08:55;13.90;;;6.00;;
6955;SDS011;50345;51.136;16.886;2022-08-25T11:11:33;14.63;;;6.47;;
6955;SDS011;50345;51.136;16.886;2022-08-25T11:14:10;17.87;;;6.00;;
6955;SDS011;50345;51.136;16.886;2022-08-25T11:16:41;11.53;;;6.90;;
6955;SDS011;50345;51.136;16.886;2022-08-25T11:19:20;12.60;;;5.40;;
6955;SDS011;50345;51.136;16.886;2022-08-25T11:24:28;16.90;;;6.20;;
6955;SDS011;50345;51.136;16.886;2022-08-25T11:26:57;12.47;;;5.73;;
6955;SDS011;50345;51.136;16.886;2022-08-25T11:29:25;12.80;;;5.03;;
6955;SDS011;50345;51.136;16.886;2022-08-25T11:31:55;16.83;;;6.00;;
6955;SDS011;50345;51.136;16.886;2022-08-25T11:34:23;12.37;;;4.77;;
6955;SDS011;50345;51.136;16.886;2022-08-25T11:39:24;11.63;;;5.83;;
6955;SDS011;50345;51.136;16.886;2022-08-25T11:42:11;20.93;;;7.20;;
6955;SDS011;50345;51.136;16.886;2022-08-25T11:47:21;16.97;;;6.50;;
6955;SDS011;50345;51.136;16.886;2022-08-25T11:49:52;13.20;;;5.67;;
6955;SDS011;50345;51.136;16.886;2022-08-25T11:55:17;16.50;;;6.53;;
6955;SDS011;50345;51.136;16.886;2022-08-25T11:57:44;20.00;;;6.83;;
6955;SDS011;50345;51.136;16.886;2022-08-25T12:02:52;15.17;;;6.27;;
6955;SDS011;50345;51.136;16.886;2022-08-25T12:10:55;11.30;;;5.13;;
6955;SDS011;50345;51.136;16.886;2022-08-25T12:13:23;17.00;;;4.97;;
6955;SDS011;50345;51.136;16.886;2022-08-25T12:34:09;23.50;;;7.67;;
6955;SDS011;50345;51.136;16.886;2022-08-25T12:36:40;15.50;;;6.63;;
6955;SDS011;50345;51.136;16.886;2022-08-25T12:39:20;17.27;;;6.67;;
6955;SDS011;50345;51.136;16.886;2022-08-25T12:41:55;14.60;;;6.40;;
6955;SDS011;50345;51.136;16.886;2022-08-25T12:44:35;16.70;;;6.90;;
6955;SDS011;50345;51.136;16.886;2022-08-25T12:47:10;13.60;;;7.17;;
6955;SDS011;50345;51.136;16.886;2022-08-25T12:49:37;14.63;;;6.93;;
6955;SDS011;50345;51.136;16.886;2022-08-25T12:56:57;12.30;;;6.30;;
6955;SDS011;50345;51.136;16.886;2022-08-25T12:59:37;14.77;;;6.70;;
6955;SDS011;50345;51.136;16.886;2022-08-25T13:09:44;19.23;;;7.60;;
6955;SDS011;50345;51.136;16.886;2022-08-25T13:12:18;14.70;;;6.63;;
6955;SDS011;50345;51.136;16.886;2022-08-25T13:14:56;16.23;;;7.20;;
6955;SDS011;50345;51.136;16.886;2022-08-25T13:17:23;14.23;;;6.77;;
6955;SDS011;50345;51.136;16.886;2022-08-25T13:19:49;12.13;;;6.00;;
6955;SDS011;50345;51.136;16.886;2022-08-25T13:22:15;17.30;;;5.93;;
6955;SDS011;50345;51.136;16.886;2022-08-25T13:24:44;17.33;;;6.87;;
6955;SDS011;50345;51.136;16.886;2022-08-25T13:27:20;19.27;;;6.93;;
6955;SDS011;50345;51.136;16.886;2022-08-25T13:29:52;14.10;;;7.10;;
6955;SDS011;50345;51.136;16.886;2022-08-25T13:32:25;11.73;;;6.57;;
6955;SDS011;50345;51.136;16.886;2022-08-25T13:34:52;19.13;;;7.10;;
6955;SDS011;50345;51.136;16.886;2022-08-25T13:37:31;19.70;;;6.60;;
6955;SDS011;50345;51.136;16.886;2022-08-25T13:42:33;16.67;;;7.27;;
6955;SDS011;50345;51.136;16.886;2022-08-25T13:45:00;14.73;;;5.70;;
6955;SDS011;50345;51.136;16.886;2022-08-25T13:50:14;14.70;;;6.73;;
6955;SDS011;50345;51.136;16.886;2022-08-25T13:52:42;26.30;;;11.67;;
6955;SDS011;50345;51.136;16.886;2022-08-25T13:55:11;23.07;;;7.00;;
6955;SDS011;50345;51.136;16.886;2022-08-25T13:57:43;21.27;;;8.37;;
6955;SDS011;50345;51.136;16.886;2022-08-25T14:00:10;13.63;;;6.70;;
6955;SDS011;50345;51.136;16.886;2022-08-25T14:02:46;21.03;;;9.17;;
6955;SDS011;50345;51.136;16.886;2022-08-25T14:05:13;11.50;;;7.83;;
6955;SDS011;50345;51.136;16.886;2022-08-25T14:07:51;17.20;;;7.43;;
6955;SDS011;50345;51.136;16.886;2022-08-25T14:10:37;13.00;;;6.60;;
6955;SDS011;50345;51.136;16.886;2022-08-25T14:15:50;17.90;;;6.60;;
6955;SDS011;50345;51.136;16.886;2022-08-25T14:18:17;14.90;;;6.57;;
6955;SDS011;50345;51.136;16.886;2022-08-25T14:20:49;15.27;;;7.10;;
6955;SDS011;50345;51.136;16.886;2022-08-25T14:23:18;19.20;;;6.87;;
6955;SDS011;50345;51.136;16.886;2022-08-25T14:25:45;16.60;;;7.57;;
6955;SDS011;50345;51.136;16.886;2022-08-25T14:28:13;15.17;;;6.30;;
6955;SDS011;50345;51.136;16.886;2022-08-25T14:30:41;20.47;;;6.93;;
6955;SDS011;50345;51.136;16.886;2022-08-25T14:33:08;19.43;;;6.30;;
6955;SDS011;50345;51.136;16.886;2022-08-25T14:35:34;18.63;;;6.60;;
6955;SDS011;50345;51.136;16.886;2022-08-25T14:38:02;19.13;;;7.40;;
6955;SDS011;50345;51.136;16.886;2022-08-25T14:40:32;20.17;;;7.40;;
6955;SDS011;50345;51.136;16.886;2022-08-25T14:42:59;19.43;;;6.27;;
6955;SDS011;50345;51.136;16.886;2022-08-25T14:45:25;20.23;;;6.80;;
6955;SDS011;50345;51.136;16.886;2022-08-25T14:47:51;14.30;;;6.60;;
6955;SDS011;50345;51.136;16.886;2022-08-25T14:50:17;15.07;;;6.13;;
6955;SDS011;50345;51.136;16.886;2022-08-25T14:52:44;16.27;;;6.90;;
6955;SDS011;50345;51.136;16.886;2022-08-25T14:55:10;16.23;;;6.67;;
6955;SDS011;50345;51.136;16.886;2022-08-25T14:57:37;17.97;;;7.10;;
6955;SDS011;50345;51.136;16.886;2022-08-25T15:00:03;11.57;;;5.60;;
6955;SDS011;50345;51.136;16.886;2022-08-25T15:02:30;15.27;;;6.80;;
6955;SDS011;50345;51.136;16.886;2022-08-25T15:04:59;12.63;;;6.17;;
6955;SDS011;50345;51.136;16.886;2022-08-25T15:07:29;25.50;;;6.60;;
6955;SDS011;50345;51.136;16.886;2022-08-25T15:10:14;19.03;;;5.70;;
6955;SDS011;50345;51.136;16.886;2022-08-25T15:12:41;19.30;;;6.90;;
6955;SDS011;50345;51.136;16.886;2022-08-25T15:15:07;20.10;;;6.23;;
6955;SDS011;50345;51.136;16.886;2022-08-25T15:17:34;18.20;;;6.33;;
6955;SDS011;50345;51.136;16.886;2022-08-25T15:20:00;12.03;;;4.63;;
6955;SDS011;50345;51.136;16.886;2022-08-25T15:22:26;15.93;;;6.30;;
6955;SDS011;50345;51.136;16.886;2022-08-25T15:24:52;15.43;;;5.67;;
6955;SDS011;50345;51.136;16.886;2022-08-25T15:27:18;21.77;;;7.37;;
6955;SDS011;50345;51.136;16.886;2022-08-25T15:29:45;15.40;;;5.90;;
6955;SDS011;50345;51.136;16.886;2022-08-25T15:32:11;18.87;;;7.07;;
6955;SDS011;50345;51.136;16.886;2022-08-25T15:34:38;11.83;;;5.17;;
6955;SDS011;50345;51.136;16.886;2022-08-25T15:37:06;16.40;;;6.87;;
6955;SDS011;50345;51.136;16.886;2022-08-25T15:39:33;16.73;;;5.80;;
6955;SDS011;50345;51.136;16.886;2022-08-25T15:41:59;16.37;;;7.60;;
6955;SDS011;50345;51.136;16.886;2022-08-25T15:44:26;10.37;;;5.50;;
6955;SDS011;50345;51.136;16.886;2022-08-25T15:46:52;15.87;;;7.40;;
6955;SDS011;50345;51.136;16.886;2022-08-25T15:49:18;16.20;;;6.80;;
6955;SDS011;50345;51.136;16.886;2022-08-25T15:51:45;19.93;;;5.90;;
6955;SDS011;50345;51.136;16.886;2022-08-25T15:54:11;15.73;;;5.60;;
6955;SDS011;50345;51.136;16.886;2022-08-25T15:56:38;17.33;;;5.47;;
6955;SDS011;50345;51.136;16.886;2022-08-25T15:59:04;10.87;;;5.50;;
6955;SDS011;50345;51.136;16.886;2022-08-25T16:01:31;22.83;;;7.77;;
6955;SDS011;50345;51.136;16.886;2022-08-25T16:03:57;24.10;;;6.47;;
6955;SDS011;50345;51.136;16.886;2022-08-25T16:06:24;21.30;;;6.70;;
6955;SDS011;50345;51.136;16.886;2022-08-25T16:08:50;27.80;;;6.70;;
6955;SDS011;50345;51.136;16.886;2022-08-25T16:13:42;17.63;;;7.07;;
6955;SDS011;50345;51.136;16.886;2022-08-25T16:16:09;18.13;;;7.27;;
6955;SDS011;50345;51.136;16.886;2022-08-25T16:18:35;21.47;;;6.70;;
6955;SDS011;50345;51.136;16.886;2022-08-25T16:21:01;15.53;;;6.83;;
6955;SDS011;50345;51.136;16.886;2022-08-25T16:23:27;22.70;;;7.77;;
6955;SDS011;50345;51.136;16.886;2022-08-25T16:25:53;21.73;;;7.37;;
6955;SDS011;50345;51.136;16.886;2022-08-25T16:28:19;15.43;;;6.87;;
6955;SDS011;50345;51.136;16.886;2022-08-25T16:30:46;19.83;;;7.37;;
6955;SDS011;50345;51.136;16.886;2022-08-25T16:33:13;15.33;;;6.20;;